sensor_id;sensor_type;location;lat;lon;timestamp;temperature;humidity
33207;DHT22;19565;46.602;11.534;2024-03-02T00:01:56;10.50;99.90
33207;DHT22;19565;46.602;11.534;2024-03-02T00:04:28;10.50;99.90
33207;DHT22;19565;46.602;11.534;2024-03-02T00:06:56;10.40;99.90
33207;DHT22;19565;46.602;11.534;2024-03-02T00:09:25;10.40;99.90
33207;DHT22;19565;46.602;11.534;2024-03-02T00:11:53;10.50;99.90
33207;DHT22;19565;46.602;11.534;2024-03-02T00:14:23;10.50;99.90
33207;DHT22;19565;46.602;11.534;2024-03-02T00:16:52;10.50;99.90
33207;DHT22;19565;46.602;11.534;2024-03-02T00:19:22;10.50;99.90
33207;DHT22;19565;46.602;11.534;2024-03-02T00:21:51;10.40;99.90
33207;DHT22;19565;46.602;11.534;2024-03-02T00:24:21;10.40;99.90
33207;DHT22;19565;46.602;11.534;2024-03-02T00:26:56;10.40;99.90
33207;DHT22;19565;46.602;11.534;2024-03-02T00:29:25;10.40;99.90
33207;DHT22;19565;46.602;11.534;2024-03-02T00:31:55;10.40;99.90
33207;DHT22;19565;46.602;11.534;2024-03-02T00:34:23;10.40;99.90
33207;DHT22;19565;46.602;11.534;2024-03-02T00:36:52;10.40;99.90
33207;DHT22;19565;46.602;11.534;2024-03-02T00:39:20;10.40;99.90
33207;DHT22;19565;46.602;11.534;2024-03-02T00:41:48;10.40;99.90
33207;DHT22;19565;46.602;11.534;2024-03-02T00:44:19;10.40;99.90
33207;DHT22;19565;46.602;11.534;2024-03-02T00:46:50;10.50;99.90
33207;DHT22;19565;46.602;11.534;2024-03-02T00:49:21;10.40;99.90
33207;DHT22;19565;46.602;11.534;2024-03-02T00:51:51;10.40;99.90
33207;DHT22;19565;46.602;11.534;2024-03-02T00:54:20;10.30;99.90
33207;DHT22;19565;46.602;11.534;2024-03-02T00:56:51;10.20;99.90
33207;DHT22;19565;46.602;11.534;2024-03-02T00:59:22;10.20;99.90
33207;DHT22;19565;46.602;11.534;2024-03-02T01:01:52;10.20;99.90
33207;DHT22;19565;46.602;11.534;2024-03-02T01:04:21;10.20;99.90
33207;DHT22;19565;46.602;11.534;2024-03-02T01:06:49;10.30;99.90
33207;DHT22;19565;46.602;11.534;2024-03-02T01:09:18;10.40;99.90
33207;DHT22;19565;46.602;11.534;2024-03-02T01:11:46;10.40;99.90
33207;DHT22;19565;46.602;11.534;2024-03-02T01:14:14;10.40;99.90
33207;DHT22;19565;46.602;11.534;2024-03-02T01:16:43;10.40;99.90
33207;DHT22;19565;46.602;11.534;2024-03-02T01:19:12;10.40;99.90
33207;DHT22;19565;46.602;11.534;2024-03-02T01:21:41;10.30;99.90
33207;DHT22;19565;46.602;11.534;2024-03-02T01:24:10;10.40;99.90
33207;DHT22;19565;46.602;11.534;2024-03-02T01:26:40;10.30;99.90
33207;DHT22;19565;46.602;11.534;2024-03-02T01:29:08;10.40;99.90
33207;DHT22;19565;46.602;11.534;2024-03-02T01:31:36;10.30;99.90
33207;DHT22;19565;46.602;11.534;2024-03-02T01:34:06;10.30;99.90
33207;DHT22;19565;46.602;11.534;2024-03-02T01:36:36;10.30;99.90
33207;DHT22;19565;46.602;11.534;2024-03-02T01:39:04;10.40;99.90
33207;DHT22;19565;46.602;11.534;2024-03-02T01:41:35;10.40;99.90
33207;DHT22;19565;46.602;11.534;2024-03-02T01:44:04;10.40;99.90
33207;DHT22;19565;46.602;11.534;2024-03-02T01:46:32;10.40;99.90
33207;DHT22;19565;46.602;11.534;2024-03-02T01:49:01;10.40;99.90
33207;DHT22;19565;46.602;11.534;2024-03-02T01:51:30;10.40;99.90
33207;DHT22;19565;46.602;11.534;2024-03-02T01:54:00;10.40;99.90
33207;DHT22;19565;46.602;11.534;2024-03-02T01:56:28;10.30;99.90
33207;DHT22;19565;46.602;11.534;2024-03-02T01:58:57;10.30;99.90
33207;DHT22;19565;46.602;11.534;2024-03-02T02:01:28;10.40;99.90
33207;DHT22;19565;46.602;11.534;2024-03-02T02:03:57;10.30;99.90
33207;DHT22;19565;46.602;11.534;2024-03-02T02:06:26;10.40;99.90
33207;DHT22;19565;46.602;11.534;2024-03-02T02:08:55;10.40;99.90
33207;DHT22;19565;46.602;11.534;2024-03-02T02:11:26;10.40;99.90
33207;DHT22;19565;46.602;11.534;2024-03-02T02:13:54;10.40;99.90
33207;DHT22;19565;46.602;11.534;2024-03-02T02:16:23;10.40;99.90
33207;DHT22;19565;46.602;11.534;2024-03-02T02:18:51;10.40;99.90
33207;DHT22;19565;46.602;11.534;2024-03-02T02:21:24;10.40;99.90
33207;DHT22;19565;46.602;11.534;2024-03-02T02:23:53;10.40;99.90
33207;DHT22;19565;46.602;11.534;2024-03-02T02:26:21;10.40;99.90
33207;DHT22;19565;46.602;11.534;2024-03-02T02:28:49;10.30;99.90
33207;DHT22;19565;46.602;11.534;2024-03-02T02:31:17;10.30;99.90
33207;DHT22;19565;46.602;11.534;2024-03-02T02:33:46;10.40;99.90
33207;DHT22;19565;46.602;11.534;2024-03-02T02:36:15;10.30;99.90
33207;DHT22;19565;46.602;11.534;2024-03-02T02:38:46;10.30;99.90
33207;DHT22;19565;46.602;11.534;2024-03-02T02:41:16;10.30;99.90
33207;DHT22;19565;46.602;11.534;2024-03-02T02:43:44;10.30;99.90
33207;DHT22;19565;46.602;11.534;2024-03-02T02:46:12;10.30;99.90
33207;DHT22;19565;46.602;11.534;2024-03-02T02:48:40;10.20;99.90
33207;DHT22;19565;46.602;11.534;2024-03-02T02:51:09;10.20;99.90
33207;DHT22;19565;46.602;11.534;2024-03-02T02:53:37;10.20;99.90
33207;DHT22;19565;46.602;11.534;2024-03-02T02:56:08;10.20;99.90
33207;DHT22;19565;46.602;11.534;2024-03-02T02:58:37;10.20;99.90
33207;DHT22;19565;46.602;11.534;2024-03-02T03:01:05;10.20;99.90
33207;DHT22;19565;46.602;11.534;2024-03-02T03:03:34;10.20;99.90
33207;DHT22;19565;46.602;11.534;2024-03-02T03:06:03;10.20;99.90
33207;DHT22;19565;46.602;11.534;2024-03-02T03:08:31;10.20;99.90
33207;DHT22;19565;46.602;11.534;2024-03-02T03:11:00;10.20;99.90
33207;DHT22;19565;46.602;11.534;2024-03-02T03:13:29;10.10;99.90
33207;DHT22;19565;46.602;11.534;2024-03-02T03:15:58;10.20;99.90
33207;DHT22;19565;46.602;11.534;2024-03-02T03:18:26;10.20;99.90
33207;DHT22;19565;46.602;11.534;2024-03-02T03:20:54;10.20;99.90
33207;DHT22;19565;46.602;11.534;2024-03-02T03:23:23;10.10;99.90
33207;DHT22;19565;46.602;11.534;2024-03-02T03:25:52;10.20;99.90
33207;DHT22;19565;46.602;11.534;2024-03-02T03:28:21;10.20;99.90
33207;DHT22;19565;46.602;11.534;2024-03-02T03:30:50;10.20;99.90
33207;DHT22;19565;46.602;11.534;2024-03-02T03:33:18;10.20;99.90
33207;DHT22;19565;46.602;11.534;2024-03-02T03:35:47;10.20;99.90
33207;DHT22;19565;46.602;11.534;2024-03-02T03:38:15;10.20;99.90
33207;DHT22;19565;46.602;11.534;2024-03-02T03:40:43;10.20;99.90
33207;DHT22;19565;46.602;11.534;2024-03-02T03:43:12;10.20;99.90
33207;DHT22;19565;46.602;11.534;2024-03-02T03:45:40;10.20;99.90
33207;DHT22;19565;46.602;11.534;2024-03-02T03:48:10;10.20;99.90
33207;DHT22;19565;46.602;11.534;2024-03-02T03:50:38;10.10;99.90
33207;DHT22;19565;46.602;11.534;2024-03-02T03:53:06;10.20;99.90
33207;DHT22;19565;46.602;11.534;2024-03-02T03:55:34;10.20;99.90
33207;DHT22;19565;46.602;11.534;2024-03-02T03:58:03;10.10;99.90
33207;DHT22;19565;46.602;11.534;2024-03-02T04:00:31;10.10;99.90
33207;DHT22;19565;46.602;11.534;2024-03-02T04:03:00;10.10;99.90
33207;DHT22;19565;46.602;11.534;2024-03-02T04:05:29;10.10;99.90
33207;DHT22;19565;46.602;11.534;2024-03-02T04:07:57;10.10;99.90
33207;DHT22;19565;46.602;11.534;2024-03-02T04:10:26;10.10;99.90
33207;DHT22;19565;46.602;11.534;2024-03-02T04:12:55;10.10;99.90
33207;DHT22;19565;46.602;11.534;2024-03-02T04:15:23;10.00;99.90
33207;DHT22;19565;46.602;11.534;2024-03-02T04:17:51;10.00;99.90
33207;DHT22;19565;46.602;11.534;2024-03-02T04:20:20;10.00;99.90
33207;DHT22;19565;46.602;11.534;2024-03-02T04:22:49;10.00;99.90
33207;DHT22;19565;46.602;11.534;2024-03-02T04:25:17;9.90;99.90
33207;DHT22;19565;46.602;11.534;2024-03-02T04:27:46;9.90;99.90
33207;DHT22;19565;46.602;11.534;2024-03-02T04:30:15;9.90;99.90
33207;DHT22;19565;46.602;11.534;2024-03-02T04:32:43;9.90;99.90
33207;DHT22;19565;46.602;11.534;2024-03-02T04:35:13;9.90;99.90
33207;DHT22;19565;46.602;11.534;2024-03-02T04:37:44;9.90;99.90
33207;DHT22;19565;46.602;11.534;2024-03-02T04:40:16;9.80;99.90
33207;DHT22;19565;46.602;11.534;2024-03-02T04:42:45;9.80;99.90
33207;DHT22;19565;46.602;11.534;2024-03-02T04:45:13;9.80;99.90
33207;DHT22;19565;46.602;11.534;2024-03-02T04:47:49;9.80;99.90
33207;DHT22;19565;46.602;11.534;2024-03-02T04:50:17;9.80;99.90
33207;DHT22;19565;46.602;11.534;2024-03-02T04:52:46;9.80;99.90
33207;DHT22;19565;46.602;11.534;2024-03-02T04:55:15;9.80;99.90
33207;DHT22;19565;46.602;11.534;2024-03-02T04:58:12;9.80;99.90
33207;DHT22;19565;46.602;11.534;2024-03-02T05:00:40;9.80;99.90
33207;DHT22;19565;46.602;11.534;2024-03-02T05:03:09;9.80;99.90
33207;DHT22;19565;46.602;11.534;2024-03-02T05:05:38;9.80;99.90
33207;DHT22;19565;46.602;11.534;2024-03-02T05:08:06;9.80;99.90
33207;DHT22;19565;46.602;11.534;2024-03-02T05:10:36;9.80;99.90
33207;DHT22;19565;46.602;11.534;2024-03-02T05:13:04;9.80;99.90
33207;DHT22;19565;46.602;11.534;2024-03-02T05:15:31;9.80;99.90
33207;DHT22;19565;46.602;11.534;2024-03-02T05:18:00;9.80;99.90
33207;DHT22;19565;46.602;11.534;2024-03-02T05:20:29;9.70;99.90
33207;DHT22;19565;46.602;11.534;2024-03-02T05:22:58;9.70;99.90
33207;DHT22;19565;46.602;11.534;2024-03-02T05:25:26;9.70;99.90
33207;DHT22;19565;46.602;11.534;2024-03-02T05:27:55;9.70;99.90
33207;DHT22;19565;46.602;11.534;2024-03-02T05:30:24;9.70;99.90
33207;DHT22;19565;46.602;11.534;2024-03-02T05:32:53;9.70;99.90
33207;DHT22;19565;46.602;11.534;2024-03-02T05:35:21;9.60;99.90
33207;DHT22;19565;46.602;11.534;2024-03-02T05:37:49;9.60;99.90
33207;DHT22;19565;46.602;11.534;2024-03-02T05:40:18;9.60;99.90
33207;DHT22;19565;46.602;11.534;2024-03-02T05:42:50;9.60;99.90
33207;DHT22;19565;46.602;11.534;2024-03-02T05:45:22;9.60;99.90
33207;DHT22;19565;46.602;11.534;2024-03-02T05:47:50;9.60;99.90
33207;DHT22;19565;46.602;11.534;2024-03-02T05:50:19;9.60;99.90
33207;DHT22;19565;46.602;11.534;2024-03-02T05:52:47;9.60;99.90
33207;DHT22;19565;46.602;11.534;2024-03-02T05:55:16;9.60;99.90
33207;DHT22;19565;46.602;11.534;2024-03-02T05:57:44;9.60;99.90
33207;DHT22;19565;46.602;11.534;2024-03-02T06:00:27;9.60;99.90
33207;DHT22;19565;46.602;11.534;2024-03-02T06:02:57;9.60;99.90
33207;DHT22;19565;46.602;11.534;2024-03-02T06:05:26;9.50;99.90
33207;DHT22;19565;46.602;11.534;2024-03-02T06:07:56;9.50;99.90
33207;DHT22;19565;46.602;11.534;2024-03-02T06:10:24;9.50;99.90
33207;DHT22;19565;46.602;11.534;2024-03-02T06:12:53;9.50;99.90
33207;DHT22;19565;46.602;11.534;2024-03-02T06:15:21;9.60;99.90
33207;DHT22;19565;46.602;11.534;2024-03-02T06:17:51;9.60;99.90
33207;DHT22;19565;46.602;11.534;2024-03-02T06:20:19;9.60;99.90
33207;DHT22;19565;46.602;11.534;2024-03-02T06:22:48;9.50;99.90
33207;DHT22;19565;46.602;11.534;2024-03-02T06:25:16;9.60;99.90
33207;DHT22;19565;46.602;11.534;2024-03-02T06:27:44;9.60;99.90
33207;DHT22;19565;46.602;11.534;2024-03-02T06:30:13;9.60;99.90
33207;DHT22;19565;46.602;11.534;2024-03-02T06:32:42;9.60;99.90
33207;DHT22;19565;46.602;11.534;2024-03-02T06:35:15;9.60;99.90
33207;DHT22;19565;46.602;11.534;2024-03-02T06:37:43;9.60;99.90
33207;DHT22;19565;46.602;11.534;2024-03-02T06:40:11;9.60;99.90
33207;DHT22;19565;46.602;11.534;2024-03-02T06:42:40;9.60;99.90
33207;DHT22;19565;46.602;11.534;2024-03-02T06:45:08;9.60;99.90
33207;DHT22;19565;46.602;11.534;2024-03-02T06:47:37;9.50;99.90
33207;DHT22;19565;46.602;11.534;2024-03-02T06:50:05;9.50;99.90
33207;DHT22;19565;46.602;11.534;2024-03-02T06:52:36;9.60;99.90
33207;DHT22;19565;46.602;11.534;2024-03-02T06:55:05;9.60;99.90
33207;DHT22;19565;46.602;11.534;2024-03-02T06:57:33;9.60;99.90
33207;DHT22;19565;46.602;11.534;2024-03-02T07:00:02;9.60;99.90
33207;DHT22;19565;46.602;11.534;2024-03-02T07:02:32;9.70;99.90
33207;DHT22;19565;46.602;11.534;2024-03-02T07:05:00;9.60;99.90
33207;DHT22;19565;46.602;11.534;2024-03-02T07:07:28;9.50;99.90
33207;DHT22;19565;46.602;11.534;2024-03-02T07:09:58;9.50;99.90
33207;DHT22;19565;46.602;11.534;2024-03-02T07:12:27;9.40;99.90
33207;DHT22;19565;46.602;11.534;2024-03-02T07:14:55;9.20;99.90
33207;DHT22;19565;46.602;11.534;2024-03-02T07:17:51;9.20;99.90
33207;DHT22;19565;46.602;11.534;2024-03-02T07:20:23;9.30;99.90
33207;DHT22;19565;46.602;11.534;2024-03-02T07:22:51;9.30;99.90
33207;DHT22;19565;46.602;11.534;2024-03-02T07:25:20;9.30;99.90
33207;DHT22;19565;46.602;11.534;2024-03-02T07:27:52;9.20;99.90
33207;DHT22;19565;46.602;11.534;2024-03-02T07:30:20;9.10;99.90
33207;DHT22;19565;46.602;11.534;2024-03-02T07:32:50;9.20;99.90
33207;DHT22;19565;46.602;11.534;2024-03-02T07:35:18;9.20;99.90
33207;DHT22;19565;46.602;11.534;2024-03-02T07:37:47;9.10;99.90
33207;DHT22;19565;46.602;11.534;2024-03-02T07:40:15;9.20;99.90
33207;DHT22;19565;46.602;11.534;2024-03-02T07:42:45;9.20;99.90
33207;DHT22;19565;46.602;11.534;2024-03-02T07:45:14;9.10;99.90
33207;DHT22;19565;46.602;11.534;2024-03-02T07:47:42;9.10;99.90
33207;DHT22;19565;46.602;11.534;2024-03-02T07:50:11;9.20;99.90
33207;DHT22;19565;46.602;11.534;2024-03-02T07:52:40;9.20;99.90
33207;DHT22;19565;46.602;11.534;2024-03-02T07:55:08;9.20;99.90
33207;DHT22;19565;46.602;11.534;2024-03-02T07:57:36;9.10;99.90
33207;DHT22;19565;46.602;11.534;2024-03-02T08:00:08;9.10;99.90
33207;DHT22;19565;46.602;11.534;2024-03-02T08:02:37;9.10;99.90
33207;DHT22;19565;46.602;11.534;2024-03-02T08:05:06;9.10;99.90
33207;DHT22;19565;46.602;11.534;2024-03-02T08:07:35;9.20;99.90
33207;DHT22;19565;46.602;11.534;2024-03-02T08:10:04;9.30;99.90
33207;DHT22;19565;46.602;11.534;2024-03-02T08:12:32;9.20;99.90
33207;DHT22;19565;46.602;11.534;2024-03-02T08:15:01;9.20;99.90
33207;DHT22;19565;46.602;11.534;2024-03-02T08:17:30;9.30;99.90
33207;DHT22;19565;46.602;11.534;2024-03-02T08:20:05;9.40;99.90
33207;DHT22;19565;46.602;11.534;2024-03-02T08:22:33;9.40;99.90
33207;DHT22;19565;46.602;11.534;2024-03-02T08:25:02;9.50;99.90
33207;DHT22;19565;46.602;11.534;2024-03-02T08:27:31;9.60;99.90
33207;DHT22;19565;46.602;11.534;2024-03-02T08:30:00;9.50;99.90
33207;DHT22;19565;46.602;11.534;2024-03-02T08:32:39;9.60;99.90
33207;DHT22;19565;46.602;11.534;2024-03-02T08:35:08;9.70;99.90
33207;DHT22;19565;46.602;11.534;2024-03-02T08:37:38;9.80;99.90
33207;DHT22;19565;46.602;11.534;2024-03-02T08:40:09;9.90;99.90
33207;DHT22;19565;46.602;11.534;2024-03-02T08:42:43;9.80;99.90
33207;DHT22;19565;46.602;11.534;2024-03-02T08:45:12;9.80;99.90
33207;DHT22;19565;46.602;11.534;2024-03-02T08:47:42;9.80;99.90
33207;DHT22;19565;46.602;11.534;2024-03-02T08:50:11;9.90;99.90
33207;DHT22;19565;46.602;11.534;2024-03-02T08:52:39;10.00;99.90
33207;DHT22;19565;46.602;11.534;2024-03-02T08:55:08;10.10;99.90
33207;DHT22;19565;46.602;11.534;2024-03-02T08:57:38;10.20;99.90
33207;DHT22;19565;46.602;11.534;2024-03-02T09:00:07;10.40;99.90
33207;DHT22;19565;46.602;11.534;2024-03-02T09:02:36;10.50;99.90
33207;DHT22;19565;46.602;11.534;2024-03-02T09:05:07;10.50;99.90
33207;DHT22;19565;46.602;11.534;2024-03-02T09:07:35;10.60;99.90
33207;DHT22;19565;46.602;11.534;2024-03-02T09:10:06;10.60;99.90
33207;DHT22;19565;46.602;11.534;2024-03-02T09:12:35;10.70;99.90
33207;DHT22;19565;46.602;11.534;2024-03-02T09:15:04;10.80;99.90
33207;DHT22;19565;46.602;11.534;2024-03-02T09:17:33;10.70;99.90
33207;DHT22;19565;46.602;11.534;2024-03-02T09:20:01;10.70;99.90
33207;DHT22;19565;46.602;11.534;2024-03-02T09:22:32;10.80;99.90
33207;DHT22;19565;46.602;11.534;2024-03-02T09:25:00;10.90;99.90
33207;DHT22;19565;46.602;11.534;2024-03-02T09:27:28;11.00;99.90
33207;DHT22;19565;46.602;11.534;2024-03-02T09:29:57;11.10;99.90
33207;DHT22;19565;46.602;11.534;2024-03-02T09:32:25;11.20;99.90
33207;DHT22;19565;46.602;11.534;2024-03-02T09:34:54;11.20;99.90
33207;DHT22;19565;46.602;11.534;2024-03-02T09:37:23;11.30;99.90
33207;DHT22;19565;46.602;11.534;2024-03-02T09:39:52;11.30;99.90
33207;DHT22;19565;46.602;11.534;2024-03-02T09:42:21;11.40;99.90
33207;DHT22;19565;46.602;11.534;2024-03-02T09:44:51;11.50;99.90
33207;DHT22;19565;46.602;11.534;2024-03-02T09:47:19;11.60;99.90
33207;DHT22;19565;46.602;11.534;2024-03-02T09:49:47;11.60;99.90
33207;DHT22;19565;46.602;11.534;2024-03-02T09:52:16;11.70;99.90
33207;DHT22;19565;46.602;11.534;2024-03-02T09:54:44;11.70;99.90
33207;DHT22;19565;46.602;11.534;2024-03-02T09:57:16;11.70;99.90
33207;DHT22;19565;46.602;11.534;2024-03-02T09:59:45;11.70;99.90
33207;DHT22;19565;46.602;11.534;2024-03-02T10:02:15;11.80;99.90
33207;DHT22;19565;46.602;11.534;2024-03-02T10:04:44;11.80;99.90
33207;DHT22;19565;46.602;11.534;2024-03-02T10:07:14;11.90;99.90
33207;DHT22;19565;46.602;11.534;2024-03-02T10:09:44;11.90;99.90
33207;DHT22;19565;46.602;11.534;2024-03-02T10:12:13;11.90;99.90
33207;DHT22;19565;46.602;11.534;2024-03-02T10:14:44;11.90;99.90
33207;DHT22;19565;46.602;11.534;2024-03-02T10:17:13;12.00;99.90
33207;DHT22;19565;46.602;11.534;2024-03-02T10:19:42;12.00;99.90
33207;DHT22;19565;46.602;11.534;2024-03-02T10:22:10;12.10;99.90
33207;DHT22;19565;46.602;11.534;2024-03-02T10:24:40;12.10;99.90
33207;DHT22;19565;46.602;11.534;2024-03-02T10:27:09;12.20;99.90
33207;DHT22;19565;46.602;11.534;2024-03-02T10:29:39;12.30;99.90
33207;DHT22;19565;46.602;11.534;2024-03-02T10:32:12;12.40;99.90
33207;DHT22;19565;46.602;11.534;2024-03-02T10:34:41;12.40;99.90
33207;DHT22;19565;46.602;11.534;2024-03-02T10:37:11;12.50;99.90
33207;DHT22;19565;46.602;11.534;2024-03-02T10:39:40;12.40;99.90
33207;DHT22;19565;46.602;11.534;2024-03-02T10:42:10;12.50;99.90
33207;DHT22;19565;46.602;11.534;2024-03-02T10:44:40;12.50;99.90
33207;DHT22;19565;46.602;11.534;2024-03-02T10:47:13;12.50;99.90
33207;DHT22;19565;46.602;11.534;2024-03-02T10:49:42;12.50;99.90
33207;DHT22;19565;46.602;11.534;2024-03-02T10:52:11;12.40;99.90
33207;DHT22;19565;46.602;11.534;2024-03-02T10:54:39;12.40;99.90
33207;DHT22;19565;46.602;11.534;2024-03-02T10:57:08;12.40;99.90
33207;DHT22;19565;46.602;11.534;2024-03-02T10:59:49;12.30;99.90
33207;DHT22;19565;46.602;11.534;2024-03-02T11:02:21;12.20;99.90
33207;DHT22;19565;46.602;11.534;2024-03-02T11:04:54;12.20;99.90
33207;DHT22;19565;46.602;11.534;2024-03-02T11:07:25;12.20;99.90
33207;DHT22;19565;46.602;11.534;2024-03-02T11:09:59;12.20;99.90
33207;DHT22;19565;46.602;11.534;2024-03-02T11:12:29;12.10;99.90
33207;DHT22;19565;46.602;11.534;2024-03-02T11:15:00;12.10;99.90
33207;DHT22;19565;46.602;11.534;2024-03-02T11:17:33;12.10;99.90
33207;DHT22;19565;46.602;11.534;2024-03-02T11:20:02;12.10;99.90
33207;DHT22;19565;46.602;11.534;2024-03-02T11:22:31;12.20;99.90
33207;DHT22;19565;46.602;11.534;2024-03-02T11:25:00;12.20;99.90
33207;DHT22;19565;46.602;11.534;2024-03-02T11:28:00;12.20;99.90
33207;DHT22;19565;46.602;11.534;2024-03-02T11:30:51;12.20;99.90
33207;DHT22;19565;46.602;11.534;2024-03-02T11:33:26;12.30;99.90
33207;DHT22;19565;46.602;11.534;2024-03-02T11:35:57;12.30;99.90
33207;DHT22;19565;46.602;11.534;2024-03-02T11:38:30;12.30;99.90
33207;DHT22;19565;46.602;11.534;2024-03-02T11:41:00;12.40;99.90
33207;DHT22;19565;46.602;11.534;2024-03-02T11:43:29;12.40;99.90
33207;DHT22;19565;46.602;11.534;2024-03-02T11:45:59;12.40;99.90
33207;DHT22;19565;46.602;11.534;2024-03-02T11:48:32;12.40;99.90
33207;DHT22;19565;46.602;11.534;2024-03-02T11:51:03;12.40;99.90
33207;DHT22;19565;46.602;11.534;2024-03-02T11:53:31;12.50;99.90
33207;DHT22;19565;46.602;11.534;2024-03-02T11:56:02;12.50;99.90
33207;DHT22;19565;46.602;11.534;2024-03-02T11:58:34;12.50;99.90
33207;DHT22;19565;46.602;11.534;2024-03-02T12:01:04;12.50;99.90
33207;DHT22;19565;46.602;11.534;2024-03-02T12:03:38;12.50;99.90
33207;DHT22;19565;46.602;11.534;2024-03-02T12:06:07;12.50;99.90
33207;DHT22;19565;46.602;11.534;2024-03-02T12:08:36;12.50;99.90
33207;DHT22;19565;46.602;11.534;2024-03-02T12:11:04;12.50;99.90
33207;DHT22;19565;46.602;11.534;2024-03-02T12:13:33;12.50;99.90
33207;DHT22;19565;46.602;11.534;2024-03-02T12:16:02;12.50;99.90
33207;DHT22;19565;46.602;11.534;2024-03-02T12:18:30;12.60;99.90
33207;DHT22;19565;46.602;11.534;2024-03-02T12:21:00;12.60;99.90
33207;DHT22;19565;46.602;11.534;2024-03-02T12:23:31;12.60;99.90
33207;DHT22;19565;46.602;11.534;2024-03-02T12:25:59;12.60;99.90
33207;DHT22;19565;46.602;11.534;2024-03-02T12:28:27;12.60;99.90
33207;DHT22;19565;46.602;11.534;2024-03-02T12:30:58;12.60;99.90
33207;DHT22;19565;46.602;11.534;2024-03-02T12:33:26;12.60;99.90
33207;DHT22;19565;46.602;11.534;2024-03-02T12:35:57;12.70;99.90
33207;DHT22;19565;46.602;11.534;2024-03-02T12:38:27;12.70;99.90
33207;DHT22;19565;46.602;11.534;2024-03-02T12:40:57;12.70;99.90
33207;DHT22;19565;46.602;11.534;2024-03-02T12:43:33;12.70;99.90
33207;DHT22;19565;46.602;11.534;2024-03-02T12:46:02;12.60;99.90
33207;DHT22;19565;46.602;11.534;2024-03-02T12:48:31;12.60;99.90
33207;DHT22;19565;46.602;11.534;2024-03-02T12:51:01;12.60;99.90
33207;DHT22;19565;46.602;11.534;2024-03-02T12:53:31;12.60;99.90
33207;DHT22;19565;46.602;11.534;2024-03-02T12:56:00;12.60;99.90
33207;DHT22;19565;46.602;11.534;2024-03-02T12:58:28;12.60;99.90
33207;DHT22;19565;46.602;11.534;2024-03-02T13:01:07;12.60;99.90
33207;DHT22;19565;46.602;11.534;2024-03-02T13:03:36;12.60;99.90
33207;DHT22;19565;46.602;11.534;2024-03-02T13:06:06;12.60;99.90
33207;DHT22;19565;46.602;11.534;2024-03-02T13:08:36;12.60;99.90
33207;DHT22;19565;46.602;11.534;2024-03-02T13:11:05;12.50;99.90
33207;DHT22;19565;46.602;11.534;2024-03-02T13:13:34;12.50;99.90
33207;DHT22;19565;46.602;11.534;2024-03-02T13:16:05;12.50;99.90
33207;DHT22;19565;46.602;11.534;2024-03-02T13:18:36;12.50;99.90
33207;DHT22;19565;46.602;11.534;2024-03-02T13:21:06;12.50;99.90
33207;DHT22;19565;46.602;11.534;2024-03-02T13:23:36;12.50;99.90
33207;DHT22;19565;46.602;11.534;2024-03-02T13:26:04;12.60;99.90
33207;DHT22;19565;46.602;11.534;2024-03-02T13:28:34;12.60;99.90
33207;DHT22;19565;46.602;11.534;2024-03-02T13:31:03;12.70;99.90
33207;DHT22;19565;46.602;11.534;2024-03-02T13:33:31;12.70;99.90
33207;DHT22;19565;46.602;11.534;2024-03-02T13:36:03;12.80;99.90
33207;DHT22;19565;46.602;11.534;2024-03-02T13:38:32;12.90;99.90
33207;DHT22;19565;46.602;11.534;2024-03-02T13:41:03;12.90;99.90
33207;DHT22;19565;46.602;11.534;2024-03-02T13:43:34;13.00;99.90
33207;DHT22;19565;46.602;11.534;2024-03-02T13:46:05;13.10;99.90
33207;DHT22;19565;46.602;11.534;2024-03-02T13:48:33;13.10;99.90
33207;DHT22;19565;46.602;11.534;2024-03-02T13:51:02;13.10;99.90
33207;DHT22;19565;46.602;11.534;2024-03-02T13:53:31;13.20;99.90
33207;DHT22;19565;46.602;11.534;2024-03-02T13:55:59;13.30;99.90
33207;DHT22;19565;46.602;11.534;2024-03-02T13:58:29;13.40;99.90
33207;DHT22;19565;46.602;11.534;2024-03-02T14:00:57;13.30;99.90
33207;DHT22;19565;46.602;11.534;2024-03-02T14:03:26;13.30;99.90
33207;DHT22;19565;46.602;11.534;2024-03-02T14:05:57;13.30;99.90
33207;DHT22;19565;46.602;11.534;2024-03-02T14:08:26;13.20;99.90
33207;DHT22;19565;46.602;11.534;2024-03-02T14:10:54;13.20;99.90
33207;DHT22;19565;46.602;11.534;2024-03-02T14:13:25;13.10;99.90
33207;DHT22;19565;46.602;11.534;2024-03-02T14:15:54;13.10;99.90
33207;DHT22;19565;46.602;11.534;2024-03-02T14:18:23;13.10;99.90
33207;DHT22;19565;46.602;11.534;2024-03-02T14:20:51;13.10;99.90
33207;DHT22;19565;46.602;11.534;2024-03-02T14:23:20;13.10;99.90
33207;DHT22;19565;46.602;11.534;2024-03-02T14:25:48;13.10;99.90
33207;DHT22;19565;46.602;11.534;2024-03-02T14:28:16;13.10;99.90
33207;DHT22;19565;46.602;11.534;2024-03-02T14:31:07;13.10;99.90
33207;DHT22;19565;46.602;11.534;2024-03-02T14:33:36;13.20;99.90
33207;DHT22;19565;46.602;11.534;2024-03-02T14:36:05;13.20;99.90
33207;DHT22;19565;46.602;11.534;2024-03-02T14:38:33;13.30;99.90
33207;DHT22;19565;46.602;11.534;2024-03-02T14:41:01;13.20;99.90
33207;DHT22;19565;46.602;11.534;2024-03-02T14:43:30;13.20;99.90
33207;DHT22;19565;46.602;11.534;2024-03-02T14:45:59;13.20;99.90
33207;DHT22;19565;46.602;11.534;2024-03-02T14:48:28;13.20;99.90
33207;DHT22;19565;46.602;11.534;2024-03-02T14:50:57;13.10;99.90
33207;DHT22;19565;46.602;11.534;2024-03-02T14:53:25;13.10;99.90
33207;DHT22;19565;46.602;11.534;2024-03-02T14:55:53;13.00;99.90
33207;DHT22;19565;46.602;11.534;2024-03-02T14:58:22;12.90;99.90
33207;DHT22;19565;46.602;11.534;2024-03-02T15:00:50;12.90;99.90
33207;DHT22;19565;46.602;11.534;2024-03-02T15:03:19;12.80;99.90
33207;DHT22;19565;46.602;11.534;2024-03-02T15:05:48;12.80;99.90
33207;DHT22;19565;46.602;11.534;2024-03-02T15:08:18;12.70;99.90
33207;DHT22;19565;46.602;11.534;2024-03-02T15:10:46;12.70;99.90
33207;DHT22;19565;46.602;11.534;2024-03-02T15:13:18;12.70;99.90
33207;DHT22;19565;46.602;11.534;2024-03-02T15:15:46;12.60;99.90
33207;DHT22;19565;46.602;11.534;2024-03-02T15:18:14;12.60;99.90
33207;DHT22;19565;46.602;11.534;2024-03-02T15:20:43;12.60;99.90
33207;DHT22;19565;46.602;11.534;2024-03-02T15:23:13;12.60;99.90
33207;DHT22;19565;46.602;11.534;2024-03-02T15:25:44;12.60;99.90
33207;DHT22;19565;46.602;11.534;2024-03-02T15:28:12;12.50;99.90
33207;DHT22;19565;46.602;11.534;2024-03-02T15:30:40;12.50;99.90
33207;DHT22;19565;46.602;11.534;2024-03-02T15:33:09;12.50;99.90
33207;DHT22;19565;46.602;11.534;2024-03-02T15:35:37;12.50;99.90